Time;durP1;ratioP1;P1;durP2;ratioP2;P2;SDS_P1;SDS_P2;PMS_P1;PMS_P2;Temp;Humidity;BMP_temperature;BMP_pressure;BME280_temperature;BME280_humidity;BME280_pressure;Samples;Min_cycle;Max_cycle;Signal;HPM_P1;HPM_P2
2023/06/20 00:01:48;;;;;;;12.60;11.30;;;;;;;15.45;93.50;97726.66;6240132;28;20310;-42
2023/06/20 00:04:51;;;;;;;12.77;11.47;;;;;;;15.46;93.42;97723.69;6241886;28;20360;-41
2023/06/20 00:07:54;;;;;;;12.47;11.17;;;;;;;15.51;93.22;97724.75;6237112;28;20238;-42
2023/06/20 00:10:56;;;;;;;12.03;10.83;;;;;;;15.52;93.10;97721.81;6241866;28;20239;-43
2023/06/20 00:13:58;;;;;;;12.67;10.97;;;;;;;15.50;93.29;97723.94;6240818;28;20697;-42
2023/06/20 00:17:01;;;;;;;11.73;10.43;;;;;;;15.46;93.40;97718.31;6241179;28;20230;-43
2023/06/20 00:20:05;;;;;;;12.07;10.87;;;;;;;15.45;93.58;97715.91;6239549;28;20238;-44
2023/06/20 00:23:07;;;;;;;11.40;10.20;;;;;;;15.44;93.44;97715.09;6207852;28;20224;-44
2023/06/20 00:26:09;;;;;;;11.40;10.30;;;;;;;15.45;93.61;97718.59;6235869;28;20613;-42
2023/06/20 00:29:12;;;;;;;11.20;10.00;;;;;;;15.17;93.55;97669.00;6241145;28;20721;-43
2023/06/20 00:32:14;;;;;;;12.23;11.03;;;;;;;15.43;93.73;97710.81;6239237;28;20232;-42
2023/06/20 00:35:16;;;;;;;11.83;10.60;;;;;;;15.39;93.88;97701.69;6237579;28;20389;-42
2023/06/20 00:38:18;;;;;;;13.77;10.77;;;;;;;15.38;94.06;97705.47;6239578;28;20230;-42
2023/06/20 00:41:22;;;;;;;12.07;10.33;;;;;;;15.35;94.31;97706.00;6242002;28;20270;-42
2023/06/20 00:44:24;;;;;;;13.30;11.47;;;;;;;15.36;94.38;97699.53;6221924;28;20727;-42
2023/06/20 00:47:27;;;;;;;13.17;11.60;;;;;;;15.33;94.54;97697.41;6246359;28;20259;-42
2023/06/20 00:50:31;;;;;;;12.43;10.77;;;;;;;15.31;94.37;97691.50;6228320;28;20232;-42
2023/06/20 00:53:33;;;;;;;12.33;11.00;;;;;;;15.15;94.92;97676.50;6244846;28;20266;-42
2023/06/20 00:56:35;;;;;;;12.27;11.17;;;;;;;15.16;94.83;97672.75;6240540;28;20675;-42
2023/06/20 00:59:38;;;;;;;11.63;10.43;;;;;;;15.28;95.05;97700.13;6217982;28;20227;-42
2023/06/20 01:02:46;;;;;;;12.23;11.03;;;;;;;15.28;95.09;97691.25;6240031;28;20226;-42
2023/06/20 01:06:17;;;;;;;14.50;11.27;;;;;;;15.30;95.02;97684.53;6219824;28;20234;-43
2023/06/20 01:09:44;;;;;;;12.63;11.30;;;;;;;15.31;95.36;97683.44;6220330;28;20234;-42
2023/06/20 01:13:09;;;;;;;15.53;11.70;;;;;;;15.30;94.91;97676.47;6237629;28;20314;-42
2023/06/20 01:16:35;;;;;;;13.57;10.90;;;;;;;15.26;95.90;97674.59;6235187;28;20641;-41
2023/06/20 01:20:08;;;;;;;12.60;11.30;;;;;;;15.28;95.60;97675.97;6201843;28;20603;-43
2023/06/20 01:23:23;;;;;;;13.47;10.93;;;;;;;15.14;95.15;97658.81;6216281;28;20228;-42
2023/06/20 01:26:40;;;;;;;12.03;10.90;;;;;;;15.30;95.23;97667.63;6239699;28;20224;-43
2023/06/20 01:29:57;;;;;;;12.37;11.17;;;;;;;15.31;95.11;97682.66;6238260;28;20385;-41
2023/06/20 01:33:04;;;;;;;12.10;10.97;;;;;;;15.32;95.19;97677.03;6240334;28;20245;-42
2023/06/20 01:36:08;;;;;;;13.13;11.07;;;;;;;15.32;95.20;97668.16;6233826;28;20227;-42
2023/06/20 01:39:17;;;;;;;11.70;10.50;;;;;;;15.34;95.08;97668.69;6238778;28;20235;-42
2023/06/20 01:42:23;;;;;;;11.53;10.33;;;;;;;15.33;95.02;97659.03;6235326;28;20219;-42
2023/06/20 01:45:28;;;;;;;12.77;11.57;;;;;;;15.17;94.63;97634.94;6239488;28;20305;-44
2023/06/20 01:48:35;;;;;;;12.33;11.03;;;;;;;15.32;95.05;97636.78;6193936;28;20231;-44
2023/06/20 01:51:39;;;;;;;11.60;10.40;;;;;;;15.31;94.98;97650.44;6239382;28;20321;-41
2023/06/20 01:54:47;;;;;;;12.20;11.00;;;;;;;15.31;94.83;97645.88;6238233;28;20235;-43
2023/06/20 01:57:54;;;;;;;11.73;10.53;;;;;;;15.15;94.79;97633.59;6239813;28;20238;-43
2023/06/20 02:00:57;;;;;;;11.70;10.60;;;;;;;15.28;94.76;97657.16;6239550;28;20247;-43
2023/06/20 02:04:03;;;;;;;10.70;9.70;;;;;;;15.33;94.42;97661.72;6221658;28;20794;-42
2023/06/20 02:07:09;;;;;;;11.60;10.50;;;;;;;15.29;94.52;97653.41;6236503;28;20263;-42
2023/06/20 02:10:15;;;;;;;12.70;10.00;;;;;;;15.30;94.56;97668.44;6237578;28;20802;-42
2023/06/20 02:13:21;;;;;;;12.47;11.17;;;;;;;15.25;94.57;97652.34;6238278;28;20227;-42
2023/06/20 02:16:26;;;;;;;10.77;9.77;;;;;;;15.34;94.29;97660.66;6237980;28;20228;-42
2023/06/20 02:19:28;;;;;;;11.23;10.10;;;;;;;15.37;94.01;97662.75;6238863;28;20227;-42
2023/06/20 02:22:32;;;;;;;10.20;9.20;;;;;;;15.35;94.09;97675.66;6199483;28;20262;-42
2023/06/20 02:25:35;;;;;;;10.20;9.20;;;;;;;15.34;94.00;97666.00;6240494;28;20246;-42
2023/06/20 02:28:47;;;;;;;12.37;10.07;;;;;;;15.36;93.97;97670.03;6204072;28;20601;-42
2023/06/20 02:31:51;;;;;;;10.40;9.30;;;;;;;15.36;93.63;97670.03;6238578;28;20816;-42
2023/06/20 02:34:55;;;;;;;10.80;9.70;;;;;;;15.33;93.72;97670.59;6240415;28;20227;-42
2023/06/20 02:37:59;;;;;;;10.53;9.53;;;;;;;15.31;93.86;97674.59;6239486;28;20235;-43
2023/06/20 02:41:01;;;;;;;10.53;9.53;;;;;;;15.12;93.74;97632.25;6243389;28;20234;-43
2023/06/20 02:44:04;;;;;;;10.20;9.27;;;;;;;15.35;93.47;97678.34;6237268;28;20314;-42
2023/06/20 02:47:35;;;;;;;11.13;10.03;;;;;;;15.35;93.51;97673.78;6242885;28;20232;-42
2023/06/20 02:50:49;;;;;;;10.83;9.70;;;;;;;15.21;93.21;97648.59;6240481;28;20235;-41
2023/06/20 02:54:09;;;;;;;10.40;9.40;;;;;;;15.36;93.08;97671.91;6243998;28;20227;-42
2023/06/20 02:57:18;;;;;;;11.80;9.13;;;;;;;15.32;93.53;97663.63;6223948;28;20295;-44
2023/06/20 03:00:21;;;;;;;10.87;9.70;;;;;;;15.31;93.70;97667.34;6202993;28;20250;-43
2023/06/20 03:03:28;;;;;;;10.83;9.77;;;;;;;15.33;93.41;97665.22;6242106;28;20231;-44
2023/06/20 03:06:31;;;;;;;12.23;9.10;;;;;;;15.25;92.83;97651.53;6243581;28;20228;-42
2023/06/20 03:09:37;;;;;;;10.83;9.17;;;;;;;15.34;93.08;97666.81;6223801;28;20219;-41
2023/06/20 03:12:40;;;;;;;11.07;9.77;;;;;;;15.32;93.04;97663.63;6240277;28;20227;-41
2023/06/20 03:15:43;;;;;;;16.53;9.50;;;;;;;15.35;93.17;97664.94;6239834;28;20649;-41
2023/06/20 03:18:48;;;;;;;10.23;9.20;;;;;;;15.37;93.09;97670.81;6239681;28;20253;-41
2023/06/20 03:21:51;;;;;;;12.33;9.70;;;;;;;15.36;92.95;97678.06;6223941;28;20236;-44
2023/06/20 03:24:53;;;;;;;10.77;9.67;;;;;;;15.35;93.21;97691.78;6249109;28;20223;-43
2023/06/20 03:27:55;;;;;;;10.87;9.83;;;;;;;15.37;93.41;97692.28;6244157;28;20223;-45
2023/06/20 03:30:57;;;;;;;11.03;9.87;;;;;;;15.37;93.40;97697.66;6236614;28;20227;-42
2023/06/20 03:34:01;;;;;;;10.57;9.60;;;;;;;15.16;93.64;97664.69;6225594;28;20228;-42
2023/06/20 03:37:04;;;;;;;10.47;9.47;;;;;;;15.38;93.59;97704.66;6225057;28;20264;-44
2023/06/20 03:40:06;;;;;;;11.73;9.10;;;;;;;15.34;93.75;97692.84;6224233;28;20235;-43
2023/06/20 03:43:12;;;;;;;9.93;8.97;;;;;;;15.44;93.62;97695.50;6222197;28;20236;-42
2023/06/20 03:46:14;;;;;;;11.00;9.77;;;;;;;15.52;93.35;97697.66;6224664;28;20234;-42
2023/06/20 03:49:16;;;;;;;10.70;9.70;;;;;;;15.45;93.48;97684.50;6241511;28;20251;-42
2023/06/20 03:52:19;;;;;;;10.40;9.40;;;;;;;15.60;93.60;97696.25;6223840;28;20240;-41
2023/06/20 03:55:22;;;;;;;10.83;9.73;;;;;;;15.62;93.52;97697.63;6235158;28;20270;-42
2023/06/20 03:58:24;;;;;;;11.03;9.93;;;;;;;15.65;93.46;97691.72;6214917;28;20737;-41
2023/06/20 04:01:28;;;;;;;10.60;9.60;;;;;;;15.68;93.38;97704.59;6199688;28;20248;-42
2023/06/20 04:04:30;;;;;;;10.20;9.30;;;;;;;15.70;93.26;97699.75;6215108;28;20251;-41
2023/06/20 04:07:34;;;;;;;10.53;9.47;;;;;;;15.73;93.34;97696.53;6217996;28;20350;-42
2023/06/20 04:10:37;;;;;;;11.53;10.00;;;;;;;15.74;93.58;97687.38;6215561;28;20228;-42
2023/06/20 04:13:40;;;;;;;10.17;9.10;;;;;;;15.79;93.53;97691.94;6216576;28;20982;-42
2023/06/20 04:16:42;;;;;;;10.50;9.40;;;;;;;15.60;93.46;97654.09;6213853;28;20350;-42
2023/06/20 04:19:44;;;;;;;10.33;9.43;;;;;;;15.62;93.65;97654.66;6194842;28;20244;-44
2023/06/20 04:22:47;;;;;;;12.90;10.23;;;;;;;15.84;93.76;97691.91;6217157;28;20224;-42
2023/06/20 04:25:49;;;;;;;10.90;9.37;;;;;;;15.86;94.02;97699.69;6214411;28;20239;-43
2023/06/20 04:28:51;;;;;;;10.47;9.47;;;;;;;15.91;93.94;97705.88;6216626;28;20327;-43
2023/06/20 04:31:54;;;;;;;10.63;9.50;;;;;;;15.81;93.76;97678.22;6213940;28;20240;-42
2023/06/20 04:34:56;;;;;;;10.43;9.27;;;;;;;15.98;93.91;97702.88;6218718;28;20229;-42
2023/06/20 04:38:01;;;;;;;11.17;10.07;;;;;;;15.98;93.96;97703.66;6203720;28;20240;-42
2023/06/20 04:41:04;;;;;;;10.97;9.87;;;;;;;16.02;94.06;97701.25;6214667;28;20783;-42
2023/06/20 04:44:06;;;;;;;11.53;10.10;;;;;;;16.10;94.05;97707.91;6213708;28;20800;-44
2023/06/20 04:47:08;;;;;;;10.50;8.63;;;;;;;16.09;94.41;97693.66;6218133;28;20662;-42
2023/06/20 04:50:10;;;;;;;11.13;10.00;;;;;;;16.19;94.07;97706.25;6211671;28;20235;-41
2023/06/20 04:53:12;;;;;;;10.63;9.27;;;;;;;16.25;93.63;97708.66;6216087;28;20231;-42
2023/06/20 04:56:16;;;;;;;11.63;10.23;;;;;;;16.32;93.37;97699.47;6217837;28;20227;-43
2023/06/20 04:59:18;;;;;;;10.87;9.73;;;;;;;16.37;93.48;97704.81;6207220;28;20258;-42
2023/06/20 05:02:20;;;;;;;10.67;9.53;;;;;;;16.40;93.74;97699.69;6237337;28;20242;-42
2023/06/20 05:05:22;;;;;;;10.07;9.17;;;;;;;16.46;93.72;97700.47;6238378;28;20231;-42
2023/06/20 05:08:25;;;;;;;10.20;9.20;;;;;;;16.51;93.73;97706.59;6238927;28;20231;-43
2023/06/20 05:11:27;;;;;;;10.60;9.53;;;;;;;16.54;93.74;97707.91;6236780;28;20709;-43
2023/06/20 05:14:29;;;;;;;10.40;9.30;;;;;;;16.59;93.46;97697.13;6240812;28;20318;-42
2023/06/20 05:17:31;;;;;;;10.40;9.50;;;;;;;16.69;93.36;97710.50;6236615;28;20232;-43
2023/06/20 05:20:33;;;;;;;10.27;9.30;;;;;;;16.67;92.98;97698.44;6203026;28;20712;-43
2023/06/20 05:23:35;;;;;;;9.60;8.70;;;;;;;16.67;92.88;97693.03;6238655;28;20993;-45
2023/06/20 05:26:37;;;;;;;10.53;9.40;;;;;;;16.85;92.71;97727.38;6235789;28;20231;-44
2023/06/20 05:29:40;;;;;;;10.47;9.47;;;;;;;16.93;92.61;97720.56;6239007;28;20244;-44
2023/06/20 05:32:42;;;;;;;10.20;8.73;;;;;;;16.83;92.32;97691.88;6239113;28;20261;-42
2023/06/20 05:35:46;;;;;;;9.37;8.57;;;;;;;17.08;92.16;97723.13;6235866;28;20672;-43
2023/06/20 05:38:48;;;;;;;9.37;8.47;;;;;;;17.14;91.63;97719.34;6235717;28;20227;-43
2023/06/20 05:41:50;;;;;;;9.23;8.43;;;;;;;17.22;91.65;97729.47;6237589;28;20498;-43
2023/06/20 05:44:52;;;;;;;9.00;8.20;;;;;;;17.30;91.20;97730.75;6239216;28;20219;-42
2023/06/20 05:47:54;;;;;;;8.47;7.77;;;;;;;17.36;91.28;97737.69;6238423;28;20247;-43
2023/06/20 05:50:57;;;;;;;8.37;7.63;;;;;;;17.47;90.66;97736.50;6239214;28;20233;-42
2023/06/20 05:53:59;;;;;;;9.37;8.37;;;;;;;17.39;90.79;97706.69;6221320;28;20232;-42
2023/06/20 05:57:02;;;;;;;9.57;8.57;;;;;;;17.67;89.94;97745.47;6240291;28;20246;-43
2023/06/20 06:00:11;;;;;;;9.40;8.23;;;;;;;17.77;89.83;97748.06;6236853;28;20648;-42
2023/06/20 06:03:19;;;;;;;8.80;8.00;;;;;;;17.88;89.13;97743.38;6234443;28;20208;-47
2023/06/20 06:06:24;;;;;;;9.70;8.80;;;;;;;18.01;88.80;97743.47;6224818;28;20305;-43
2023/06/20 06:09:26;;;;;;;9.53;8.63;;;;;;;18.16;88.71;97742.50;6235508;28;20652;-44
2023/06/20 06:12:28;;;;;;;8.87;7.97;;;;;;;18.28;88.16;97750.19;6237843;28;20591;-43
2023/06/20 06:15:30;;;;;;;9.67;8.77;;;;;;;18.44;87.58;97750.75;6241076;28;20301;-43
2023/06/20 06:18:32;;;;;;;9.77;8.00;;;;;;;18.52;87.01;97732.03;6241253;28;20228;-43
2023/06/20 06:21:34;;;;;;;9.27;8.37;;;;;;;18.78;86.48;97745.97;6242516;28;20242;-43
2023/06/20 06:24:37;;;;;;;9.23;8.40;;;;;;;18.97;86.13;97748.66;6224585;28;20233;-43
2023/06/20 06:27:39;;;;;;;9.73;8.73;;;;;;;19.17;85.67;97744.81;6243207;28;20227;-43
2023/06/20 06:30:41;;;;;;;9.90;9.00;;;;;;;19.41;85.44;97757.38;6242884;28;20235;-43
2023/06/20 06:33:43;;;;;;;8.90;8.10;;;;;;;19.05;83.84;97663.47;6242898;28;20599;-45
2023/06/20 06:36:49;;;;;;;9.63;8.80;;;;;;;19.86;83.36;97765.78;6226251;28;20251;-45
2023/06/20 06:39:54;;;;;;;8.83;8.07;;;;;;;20.08;82.48;97760.47;6242163;28;20340;-43
2023/06/20 06:42:56;;;;;;;9.50;8.60;;;;;;;20.31;81.49;97745.13;6241023;28;20843;-44
2023/06/20 06:46:02;;;;;;;9.03;8.23;;;;;;;20.54;81.63;97752.22;6225568;28;20235;-43
2023/06/20 06:49:05;;;;;;;9.50;8.30;;;;;;;20.79;80.79;97753.56;6242564;28;20238;-44
2023/06/20 06:52:09;;;;;;;9.10;8.20;;;;;;;21.02;78.28;97748.94;6225085;28;20238;-45
2023/06/20 06:55:11;;;;;;;8.83;7.90;;;;;;;21.26;76.81;97754.03;6241286;28;20586;-44
2023/06/20 06:58:13;;;;;;;8.83;7.93;;;;;;;21.43;76.81;97749.84;6213605;28;20613;-44
2023/06/20 07:01:15;;;;;;;8.70;7.90;;;;;;;21.52;77.79;97753.41;6218204;28;20322;-46
2023/06/20 07:04:18;;;;;;;8.80;7.90;;;;;;;21.54;75.63;97756.63;6218592;28;20239;-44
2023/06/20 07:07:20;;;;;;;10.07;8.60;;;;;;;21.42;75.13;97729.28;6213914;28;20282;-44
2023/06/20 07:10:22;;;;;;;9.33;8.30;;;;;;;21.63;75.32;97754.75;6211910;28;20583;-45
2023/06/20 07:13:24;;;;;;;8.73;7.93;;;;;;;21.75;76.54;97763.09;6217633;28;20236;-44
2023/06/20 07:16:28;;;;;;;9.17;8.27;;;;;;;21.83;76.76;97765.06;6215366;28;20228;-46
2023/06/20 07:19:30;;;;;;;9.83;8.83;;;;;;;21.89;74.95;97768.44;6218944;28;20239;-46
2023/06/20 07:22:33;;;;;;;8.67;7.87;;;;;;;21.83;74.94;97750.69;6218457;28;20240;-45
2023/06/20 07:25:35;;;;;;;10.70;8.27;;;;;;;21.99;75.23;97767.34;6217944;28;20239;-46
2023/06/20 07:28:37;;;;;;;9.73;8.83;;;;;;;22.06;74.88;97770.41;6218057;28;20242;-46
2023/06/20 07:31:39;;;;;;;10.50;8.90;;;;;;;22.16;73.58;97767.41;6216016;28;20228;-43
2023/06/20 07:34:41;;;;;;;11.60;8.37;;;;;;;22.34;69.56;97773.69;6210264;28;20232;-43
2023/06/20 07:37:43;;;;;;;8.90;8.10;;;;;;;22.40;71.22;97764.28;6219096;28;20939;-44
2023/06/20 07:40:46;;;;;;;9.33;8.40;;;;;;;22.46;71.71;97760.28;6215003;28;20239;-44
2023/06/20 07:43:48;;;;;;;12.40;8.63;;;;;;;22.55;71.96;97761.13;6210274;28;20229;-44
2023/06/20 07:46:50;;;;;;;9.00;8.10;;;;;;;22.70;72.86;97759.06;6213440;28;20220;-44
2023/06/20 07:49:52;;;;;;;9.23;8.43;;;;;;;22.79;72.81;97763.38;6215716;28;20259;-45
2023/06/20 07:52:54;;;;;;;10.17;9.00;;;;;;;22.88;69.23;97756.06;6217754;28;20228;-46
2023/06/20 07:55:59;;;;;;;9.82;8.82;;;;;;;23.12;69.31;97752.06;6218481;28;20828;-44
2023/06/20 07:59:02;;;;;;;10.18;8.50;;;;;;;23.17;70.07;97751.88;6239873;28;20237;-44
2023/06/20 08:02:04;;;;;;;10.47;9.43;;;;;;;23.43;66.30;97754.53;6240441;28;20230;-44
2023/06/20 08:05:08;;;;;;;9.52;8.63;;;;;;;23.53;67.96;97750.69;6238456;28;20247;-45
2023/06/20 08:08:10;;;;;;;12.00;8.57;;;;;;;23.61;66.67;97758.81;6236069;28;20723;-45
2023/06/20 08:11:13;;;;;;;9.10;8.23;;;;;;;23.62;65.48;97757.69;6239742;28;20845;-44
2023/06/20 08:14:16;;;;;;;9.55;8.52;;;;;;;23.57;65.35;97748.91;6235513;28;20609;-44
2023/06/20 08:17:18;;;;;;;9.55;8.60;;;;;;;23.53;69.06;97754.19;6238489;28;20231;-48
2023/06/20 08:20:21;;;;;;;9.07;8.27;;;;;;;23.53;69.12;97747.97;6239447;28;20251;-44
2023/06/20 08:23:24;;;;;;;9.23;8.30;;;;;;;23.58;68.25;97745.84;6235271;28;20313;-47
2023/06/20 08:26:26;;;;;;;9.38;8.38;;;;;;;23.85;65.20;97752.06;6239453;28;20787;-45
2023/06/20 08:29:28;;;;;;;9.52;8.60;;;;;;;24.02;63.57;97756.59;6241547;28;20227;-45
2023/06/20 08:32:30;;;;;;;9.18;8.30;;;;;;;24.02;66.20;97753.88;6238898;28;20230;-44
2023/06/20 08:35:33;;;;;;;9.73;8.82;;;;;;;24.05;66.41;97755.97;6237335;28;20285;-46
2023/06/20 08:38:35;;;;;;;8.25;7.55;;;;;;;23.89;66.24;97733.91;6240530;28;20282;-46
2023/06/20 08:41:37;;;;;;;9.63;8.68;;;;;;;24.04;67.22;97760.59;6244612;28;20231;-44
2023/06/20 08:44:40;;;;;;;9.05;8.15;;;;;;;24.05;68.21;97759.47;6242311;28;20226;-45
2023/06/20 08:47:58;;;;;;;9.48;8.55;;;;;;;24.06;68.47;97755.63;6234391;28;20225;-44
2023/06/20 08:51:01;;;;;;;9.23;8.32;;;;;;;24.03;68.16;97750.03;6237658;28;20251;-44
2023/06/20 08:54:06;;;;;;;10.57;8.95;;;;;;;24.13;69.17;97753.16;6222322;28;20233;-44
2023/06/20 08:57:08;;;;;;;9.00;8.07;;;;;;;24.22;68.56;97750.41;6238701;28;20713;-45
2023/06/20 09:00:16;;;;;;;9.07;8.23;;;;;;;24.31;68.86;97751.16;6238580;28;20817;-44
2023/06/20 09:03:18;;;;;;;9.75;8.85;;;;;;;24.38;69.25;97745.22;6233951;28;20247;-47
2023/06/20 09:06:37;;;;;;;10.57;8.80;;;;;;;24.45;66.74;97743.56;6237537;28;20239;-46
2023/06/20 09:09:39;;;;;;;11.45;8.38;;;;;;;24.53;67.53;97747.38;6237365;28;20227;-46
2023/06/20 09:12:49;;;;;;;9.00;8.10;;;;;;;24.71;61.67;97745.31;6242580;28;20230;-45
2023/06/20 09:16:04;;;;;;;10.02;7.60;;;;;;;24.75;65.98;97745.44;6236799;28;20223;-45
2023/06/20 09:19:06;;;;;;;9.20;8.30;;;;;;;24.76;67.15;97744.31;6236224;28;20235;-45
2023/06/20 09:22:12;;;;;;;9.23;7.85;;;;;;;24.80;67.18;97739.78;6239799;28;20329;-45
2023/06/20 09:25:22;;;;;;;8.38;7.10;;;;;;;24.89;66.08;97749.50;6235937;28;20300;-44
2023/06/20 09:28:32;;;;;;;9.07;8.20;;;;;;;25.10;62.37;97751.41;6238329;28;20233;-45
2023/06/20 09:31:50;;;;;;;8.98;8.07;;;;;;;25.20;64.13;97753.72;6234651;28;20285;-45
2023/06/20 09:34:52;;;;;;;8.50;7.55;;;;;;;25.26;60.46;97760.56;6235762;28;20302;-44
2023/06/20 09:37:54;;;;;;;9.25;7.82;;;;;;;25.28;63.74;97766.50;6238814;28;20361;-45
2023/06/20 09:40:56;;;;;;;7.95;7.15;;;;;;;25.28;64.63;97769.22;6238937;28;20285;-45
2023/06/20 09:43:58;;;;;;;8.50;7.38;;;;;;;25.30;58.99;97766.16;6238751;28;20219;-47
2023/06/20 09:47:01;;;;;;;9.40;8.25;;;;;;;25.43;59.57;97759.59;6239061;28;20235;-46
2023/06/20 09:50:08;;;;;;;8.98;8.00;;;;;;;25.50;61.71;97762.56;6244410;28;20234;-45
2023/06/20 09:53:25;;;;;;;8.68;7.88;;;;;;;25.41;61.77;97740.03;6241417;28;20331;-45
2023/06/20 09:56:29;;;;;;;10.50;7.97;;;;;;;25.55;61.55;97756.09;6224631;28;20398;-44
2023/06/20 09:59:32;;;;;;;8.52;7.70;;;;;;;25.65;62.52;97750.19;6245105;28;20214;-45
2023/06/20 10:02:35;;;;;;;8.25;7.38;;;;;;;25.79;60.45;97736.28;6237253;28;20227;-45
2023/06/20 10:05:38;;;;;;;8.93;8.18;;;;;;;25.90;60.54;97751.84;6242971;28;20760;-47
2023/06/20 10:08:41;;;;;;;9.02;8.10;;;;;;;26.28;53.88;97747.97;6243230;28;20238;-46
2023/06/20 10:11:44;;;;;;;9.18;7.80;;;;;;;26.31;59.22;97754.72;6242566;28;20219;-45
2023/06/20 10:14:47;;;;;;;9.55;8.65;;;;;;;26.42;56.09;97751.19;6243197;28;20262;-46
2023/06/20 10:17:50;;;;;;;8.52;7.80;;;;;;;26.52;58.48;97751.84;6241519;28;20235;-46
2023/06/20 10:20:52;;;;;;;9.93;8.20;;;;;;;26.49;59.24;97756.84;6242100;28;20705;-45
2023/06/20 10:23:54;;;;;;;9.10;8.32;;;;;;;26.45;60.44;97757.88;6238204;28;20235;-46
2023/06/20 10:27:00;;;;;;;8.02;7.32;;;;;;;26.37;55.52;97732.28;6243192;28;20639;-46
2023/06/20 10:30:05;;;;;;;9.82;7.57;;;;;;;26.53;57.79;97762.44;6242860;28;20242;-46
2023/06/20 10:33:08;;;;;;;8.18;7.43;;;;;;;26.46;59.11;97752.09;6241900;28;20208;-47
2023/06/20 10:36:12;;;;;;;9.80;8.88;;;;;;;26.50;60.00;97754.91;6242624;28;20768;-47
2023/06/20 10:39:14;;;;;;;9.20;8.35;;;;;;;26.47;61.04;97761.88;6243294;28;20704;-44
2023/06/20 10:42:39;;;;;;;9.07;7.72;;;;;;;26.45;61.93;97764.16;6237251;28;20243;-45
2023/06/20 10:45:53;;;;;;;9.13;8.32;;;;;;;26.42;63.81;97762.13;6239977;28;20223;-44
2023/06/20 10:48:55;;;;;;;8.43;7.68;;;;;;;26.39;61.36;97757.28;6241964;28;20232;-45
2023/06/20 10:51:58;;;;;;;8.60;7.90;;;;;;;26.34;63.58;97762.19;6240468;28;20338;-45
2023/06/20 10:55:00;;;;;;;10.35;8.27;;;;;;;26.29;64.15;97754.25;6224490;28;20752;-44
2023/06/20 10:58:02;;;;;;;10.32;7.90;;;;;;;26.10;63.63;97728.31;6242192;28;20235;-45
2023/06/20 11:01:04;;;;;;;9.07;8.13;;;;;;;26.29;60.16;97752.31;6244214;28;20227;-45
2023/06/20 11:04:12;;;;;;;8.70;7.88;;;;;;;26.36;60.87;97746.28;6206807;28;20224;-45
2023/06/20 11:07:14;;;;;;;8.70;8.00;;;;;;;26.43;62.12;97750.03;6242595;28;20248;-45
2023/06/20 11:10:28;;;;;;;9.35;8.10;;;;;;;26.72;52.91;97738.03;6244013;28;20262;-45
2023/06/20 11:13:30;;;;;;;8.80;8.00;;;;;;;27.11;52.54;97745.78;6240100;28;20753;-45
2023/06/20 11:16:32;;;;;;;10.05;7.63;;;;;;;27.16;55.19;97740.84;6242975;28;20227;-46
2023/06/20 11:19:34;;;;;;;9.30;8.40;;;;;;;27.24;53.32;97736.34;6243009;28;20227;-46
2023/06/20 11:22:39;;;;;;;8.90;7.40;;;;;;;27.25;52.62;97741.50;6242647;28;20324;-45
2023/06/20 11:25:43;;;;;;;8.48;7.68;;;;;;;27.25;52.52;97730.56;6240687;28;20254;-45
2023/06/20 11:28:56;;;;;;;9.88;7.60;;;;;;;27.33;54.46;97728.78;6234265;28;20242;-46
2023/06/20 11:32:14;;;;;;;9.60;7.78;;;;;;;27.35;53.46;97723.78;6238939;28;20227;-47
2023/06/20 11:35:17;;;;;;;8.50;7.70;;;;;;;27.49;54.33;97737.03;6207763;28;20803;-45
2023/06/20 11:38:23;;;;;;;7.85;7.15;;;;;;;27.58;52.37;97736.84;6235642;28;20242;-46
2023/06/20 11:41:32;;;;;;;8.75;7.95;;;;;;;27.56;53.42;97722.75;6225385;28;20239;-45
2023/06/20 11:44:34;;;;;;;9.20;7.30;;;;;;;27.62;50.80;97724.84;6236834;28;20228;-48
2023/06/20 11:47:36;;;;;;;7.78;6.88;;;;;;;27.59;51.46;97713.84;6243652;28;20947;-45
2023/06/20 11:50:41;;;;;;;7.75;7.05;;;;;;;27.81;50.27;97729.66;6241347;28;20242;-45
2023/06/20 11:53:45;;;;;;;9.07;7.25;;;;;;;27.90;52.49;97730.28;6243822;28;20231;-47
2023/06/20 11:56:50;;;;;;;8.15;7.35;;;;;;;27.92;52.91;97721.69;6240013;28;20608;-45
2023/06/20 11:59:54;;;;;;;7.88;7.18;;;;;;;27.93;49.61;97721.38;6234847;28;20251;-46
2023/06/20 12:02:58;;;;;;;7.72;6.90;;;;;;;27.87;51.28;97711.81;6241423;28;20246;-46
2023/06/20 12:06:00;;;;;;;7.85;7.15;;;;;;;27.69;51.10;97721.53;6236998;28;20238;-47
2023/06/20 12:09:17;;;;;;;8.80;7.30;;;;;;;27.79;48.20;97722.97;6241403;28;20713;-45
2023/06/20 12:12:29;;;;;;;8.32;7.55;;;;;;;27.94;48.06;97717.47;6238395;28;20705;-45
2023/06/20 12:15:31;;;;;;;7.80;6.93;;;;;;;27.98;49.39;97704.66;6240480;28;20634;-45
2023/06/20 12:18:33;;;;;;;8.80;6.90;;;;;;;27.98;48.90;97704.66;6239791;28;20840;-45
2023/06/20 12:21:39;;;;;;;8.90;8.10;;;;;;;28.11;45.86;97707.28;6242533;28;20231;-46
2023/06/20 12:24:42;;;;;;;8.90;7.57;;;;;;;28.38;47.96;97714.59;6243232;28;20227;-47
2023/06/20 12:27:44;;;;;;;8.90;8.00;;;;;;;28.34;48.94;97700.00;6241273;28;20277;-46
2023/06/20 12:30:46;;;;;;;8.45;7.72;;;;;;;28.57;50.03;97718.50;6240574;28;20237;-45
2023/06/20 12:33:48;;;;;;;8.75;7.70;;;;;;;28.61;47.12;97711.13;6234710;28;20614;-47
2023/06/20 12:36:51;;;;;;;8.15;7.35;;;;;;;28.65;50.91;97701.84;6239170;28;20220;-48
2023/06/20 12:39:53;;;;;;;8.80;7.68;;;;;;;28.45;51.43;97692.03;6208106;28;20223;-47
2023/06/20 12:42:55;;;;;;;10.40;7.57;;;;;;;28.70;49.58;97690.59;6234152;28;20258;-46
2023/06/20 12:46:00;;;;;;;9.27;8.30;;;;;;;28.76;45.11;97699.31;6241254;28;20656;-45
2023/06/20 12:49:03;;;;;;;8.57;7.78;;;;;;;28.83;45.49;97701.44;6235949;28;20238;-45
2023/06/20 12:52:09;;;;;;;8.10;7.30;;;;;;;28.84;45.95;97698.31;6240480;28;20228;-45
2023/06/20 12:55:11;;;;;;;8.50;7.70;;;;;;;28.72;47.97;97696.53;6238311;28;20736;-45
2023/06/20 12:58:14;;;;;;;8.93;8.02;;;;;;;28.60;48.61;97684.88;6240542;28;20227;-47
2023/06/20 13:01:16;;;;;;;9.13;8.23;;;;;;;28.72;46.99;97690.25;6223435;28;20246;-47
2023/06/20 13:04:19;;;;;;;9.02;8.13;;;;;;;28.58;47.77;97690.75;6239333;28;20239;-47
2023/06/20 13:07:22;;;;;;;8.98;7.95;;;;;;;28.44;45.79;97688.50;6233052;28;20847;-46
2023/06/20 13:10:24;;;;;;;7.68;6.97;;;;;;;28.47;47.36;97693.25;6240140;28;20610;-46
2023/06/20 13:13:27;;;;;;;8.90;8.07;;;;;;;28.46;48.13;97680.69;6239113;28;20353;-47
2023/06/20 13:16:31;;;;;;;8.88;8.07;;;;;;;28.35;48.03;97682.41;6238021;28;20227;-45
2023/06/20 13:19:34;;;;;;;8.90;8.10;;;;;;;28.35;48.40;97684.38;6220264;28;20602;-46
2023/06/20 13:22:36;;;;;;;8.48;7.70;;;;;;;28.27;50.26;97686.91;6218718;28;20582;-45
2023/06/20 13:25:38;;;;;;;9.88;8.27;;;;;;;28.24;47.22;97684.09;6239440;28;20611;-45
2023/06/20 13:28:40;;;;;;;8.38;7.68;;;;;;;28.22;48.12;97684.44;6237345;28;20651;-45
2023/06/20 13:31:42;;;;;;;8.55;7.72;;;;;;;28.26;53.17;97677.09;6240353;28;20239;-45
2023/06/20 13:34:45;;;;;;;10.60;8.23;;;;;;;28.24;47.89;97684.09;6238599;28;20253;-46
2023/06/20 13:37:47;;;;;;;9.02;8.27;;;;;;;28.18;48.70;97666.38;6240408;28;20231;-45
2023/06/20 13:40:50;;;;;;;8.45;7.57;;;;;;;28.25;48.60;97658.28;6220610;28;20756;-45
2023/06/20 13:43:53;;;;;;;9.27;8.13;;;;;;;28.20;48.42;97669.53;6234725;28;20606;-46
2023/06/20 13:46:56;;;;;;;9.88;8.13;;;;;;;28.34;47.96;97674.56;6220681;28;20776;-46
2023/06/20 13:49:59;;;;;;;9.70;8.50;;;;;;;28.28;49.30;97679.50;6235560;28;20329;-45
2023/06/20 13:53:04;;;;;;;8.55;7.85;;;;;;;28.23;49.92;97664.13;6239678;28;20226;-45
2023/06/20 13:56:07;;;;;;;10.57;8.27;;;;;;;28.11;52.52;97661.50;6238124;28;20243;-45
2023/06/20 13:59:09;;;;;;;8.38;7.50;;;;;;;28.01;52.40;97657.38;6218906;28;20365;-45
2023/06/20 14:02:11;;;;;;;8.80;8.00;;;;;;;28.05;50.42;97662.16;6237706;28;20317;-45
2023/06/20 14:05:13;;;;;;;9.40;8.10;;;;;;;28.10;50.02;97662.66;6236416;28;20360;-48
2023/06/20 14:08:19;;;;;;;8.43;7.63;;;;;;;28.02;51.81;97666.38;6238560;28;20842;-45
2023/06/20 14:11:21;;;;;;;8.75;7.95;;;;;;;27.71;53.13;97637.13;6237833;28;20723;-44
2023/06/20 14:14:28;;;;;;;9.00;8.20;;;;;;;27.73;53.89;97663.00;6238049;28;20235;-46
2023/06/20 14:17:30;;;;;;;8.10;7.40;;;;;;;27.69;54.96;97661.28;6218499;28;20219;-46
2023/06/20 14:20:32;;;;;;;12.02;7.82;;;;;;;27.67;55.31;97658.91;6235059;28;20310;-46
2023/06/20 14:23:35;;;;;;;8.88;8.00;;;;;;;27.73;52.13;97654.78;6237630;28;20627;-45